Airfield :
LOGIN :

Register | Disclaimer

   EN    FR    IT 

 










Legend :    VFR   Marginal VFR   IFR   Intensive IFR   Very Intensive IFR
Visi :
Ceiling :
>= 8 km
>= 3000ft
5 to 8 km
1000 to 3000 ft
1500m to 5 km
500 to 1000 ft
800 to 1500m
200 to 500 ft
< 800m
< 200 ft
Symbols :   Thunderstorms  Fog  Heavy snow  Heavy precipitations  Wind > 20 kt
SIGMETs :     Misc.  Thunderstorms  Icing  Turbulence  Mountain Waves  Volcanic Ashes






- Airport Elevation : 364 ft
- IATA code : FRA


EDDF - Frankfurt Int.

CURRENT METAR :
  • 231820Z 36010KT 9999 VCSH SCT040CB 22/15 Q1018 BECMG -TSRA

EXPIRED METARs :
  • 231750Z 01009KT 9999 FEW040CB 23/15 Q1017 BECMG -TSRA
  • 231720Z 35011KT 9999 FEW040TCU 23/15 Q1017 NOSIG
  • 231650Z 35011KT 9999 FEW040TCU 23/16 Q1017 NOSIG
  • 231620Z 35010KT 9999 FEW040 23/15 Q1017 NOSIG
  • 231550Z 35012KT 9999 FEW040 23/14 Q1017 NOSIG

TAF TAF EDDF
Valid from the 23 at 18:00 until the 25 at 00:00 UTC


231700Z 2318/2424 03007KT 9999 SCT035
PROB30
TEMPO 2318/2320 -TSRA BKN030CB
BECMG 2321/2323 BKN035
PROB30
TEMPO 2403/2409 4500 TSRA BKN013 BKN025CB
TEMPO 2409/2412 RA
PROB40
TEMPO 2410/2420 3500 TSRA BKN025CB
BECMG 2419/2422 30004KT
TEMPO 2422/2424 4500 RA BKN012



MET'MAP, your aeronautical weather chart ! - Copyright ORBIFLY December 2007 - Disclaimer

ORBIFLY MET'MAP TEAM :

Programming & Development : Alexandra Zaïnal
Concept & original design : Baudouin d'Aumeries
Assistance for programming : Marc-Olivier Méhu
Technical & hardware support : Manuel Goepfert

Contact : metmap@orbifly.com




SOURCES & CREDITS :

   NOAA